Time;durP1;ratioP1;P1;durP2;ratioP2;P2;SDS_P1;SDS_P2;PMS_P1;PMS_P2;Temp;Humidity;BMP_temperature;BMP_pressure;BME280_temperature;BME280_humidity;BME280_pressure;Samples;Min_cycle;Max_cycle;Signal;HPM_P1;HPM_P2
2021/07/09 00:01:32;;;;;;;4.47;3.00;;;;;;;21.80;58.18;101936.75;4998521;28;20073;-66
2021/07/09 00:03:57;;;;;;;3.40;2.78;;;;;;;21.80;58.24;101929.56;5011815;28;20100;-65
2021/07/09 00:06:23;;;;;;;3.65;2.80;;;;;;;21.80;57.88;101928.75;5008316;28;20125;-66
2021/07/09 00:08:49;;;;;;;4.53;2.90;;;;;;;21.78;58.06;101923.59;5002983;28;20038;-65
2021/07/09 00:11:16;;;;;;;4.20;2.63;;;;;;;21.79;58.23;101929.75;5012093;28;20473;-66
2021/07/09 00:13:42;;;;;;;4.25;3.00;;;;;;;21.79;58.30;101929.75;5012473;28;20033;-66
2021/07/09 00:16:12;;;;;;;6.05;3.22;;;;;;;21.79;58.33;101929.75;5012331;28;20042;-65
2021/07/09 00:18:38;;;;;;;4.65;2.78;;;;;;;21.78;58.51;101928.09;4994190;28;20040;-66
2021/07/09 00:21:04;;;;;;;4.95;3.05;;;;;;;21.78;58.26;101925.44;5019081;28;20466;-66
2021/07/09 00:23:29;;;;;;;4.55;3.05;;;;;;;21.77;58.21;101934.44;5012209;28;20049;-65
2021/07/09 00:25:55;;;;;;;4.28;2.60;;;;;;;21.78;58.40;101930.78;5012161;28;20690;-66
2021/07/09 00:28:20;;;;;;;3.72;2.95;;;;;;;21.76;58.26;101930.94;5010584;28;20042;-66
2021/07/09 00:30:46;;;;;;;3.60;2.90;;;;;;;21.77;58.61;101929.09;5010639;28;20044;-66
2021/07/09 00:33:11;;;;;;;4.45;3.30;;;;;;;21.75;58.57;101929.28;5004976;28;20137;-65
2021/07/09 00:35:37;;;;;;;4.35;3.17;;;;;;;21.76;58.19;101930.94;5021271;28;20025;-66
2021/07/09 00:38:02;;;;;;;3.88;2.97;;;;;;;21.75;58.08;101921.25;5010882;28;20052;-65
2021/07/09 00:40:28;;;;;;;3.80;2.90;;;;;;;21.74;58.33;101919.59;4996670;28;20126;-66
2021/07/09 00:42:54;;;;;;;4.75;3.30;;;;;;;21.74;58.18;101921.44;5004850;28;20145;-65
2021/07/09 00:45:19;;;;;;;3.70;3.00;;;;;;;21.74;58.54;101921.44;5017521;28;20061;-65
2021/07/09 00:47:47;;;;;;;5.40;3.15;;;;;;;21.73;58.23;101917.94;5010528;28;20659;-65
2021/07/09 00:50:14;;;;;;;4.55;2.90;;;;;;;21.74;58.31;101924.94;5000361;28;20073;-65
2021/07/09 00:52:40;;;;;;;3.47;2.67;;;;;;;21.72;58.78;101921.63;5007708;28;20053;-65
2021/07/09 00:55:07;;;;;;;4.78;3.20;;;;;;;21.74;58.38;101921.44;5010462;28;20556;-66
2021/07/09 00:57:35;;;;;;;4.45;2.90;;;;;;;21.73;58.28;101922.47;5010153;28;20128;-65
2021/07/09 01:00:01;;;;;;;4.65;3.22;;;;;;;21.73;58.54;101917.94;5003187;28;20030;-65
2021/07/09 01:02:26;;;;;;;3.70;3.13;;;;;;;21.72;58.25;101913.63;5004064;28;20124;-65
2021/07/09 01:04:56;;;;;;;3.50;3.10;;;;;;;21.74;58.19;101914.25;5010821;28;20077;-65
2021/07/09 01:07:23;;;;;;;4.80;3.05;;;;;;;21.74;58.29;101913.44;5011033;28;20096;-66
2021/07/09 01:09:49;;;;;;;5.18;3.20;;;;;;;21.75;58.35;101913.25;5014143;28;20048;-66
2021/07/09 01:12:14;;;;;;;4.30;3.05;;;;;;;21.75;58.71;101910.56;5017487;28;20046;-66
2021/07/09 01:14:40;;;;;;;5.40;3.28;;;;;;;21.77;58.74;101915.72;5009461;28;20041;-66
2021/07/09 01:17:06;;;;;;;3.40;2.90;;;;;;;21.76;58.34;101912.22;5010404;28;20067;-65
2021/07/09 01:19:32;;;;;;;4.95;3.13;;;;;;;21.78;58.62;101914.75;5009419;28;20057;-65
2021/07/09 01:21:57;;;;;;;3.85;2.97;;;;;;;21.78;58.77;101906.72;5010759;28;20037;-66
2021/07/09 01:24:24;;;;;;;4.70;3.05;;;;;;;21.78;58.53;101910.22;5010157;28;20059;-66
2021/07/09 01:26:50;;;;;;;4.47;3.28;;;;;;;21.79;58.62;101908.38;4968953;28;1166416;-65
2021/07/09 01:29:15;;;;;;;4.45;3.00;;;;;;;21.79;58.61;101911.06;5011158;28;20070;-65
2021/07/09 01:31:43;;;;;;;3.90;2.92;;;;;;;21.80;58.48;101915.38;5010437;28;20026;-66
2021/07/09 01:34:08;;;;;;;3.88;2.92;;;;;;;21.80;58.28;101915.38;5010480;28;20068;-66
2021/07/09 01:36:34;;;;;;;4.13;3.35;;;;;;;21.79;58.25;101919.91;5012782;28;20070;-65
2021/07/09 01:38:59;;;;;;;6.18;3.50;;;;;;;21.79;58.39;101914.56;5010902;28;20477;-66
2021/07/09 01:41:25;;;;;;;4.00;3.20;;;;;;;21.79;58.47;101914.56;5002707;28;20073;-66
2021/07/09 01:43:51;;;;;;;4.68;3.10;;;;;;;21.79;58.51;101911.88;5004706;28;20042;-66
2021/07/09 01:46:16;;;;;;;4.43;2.97;;;;;;;21.80;58.74;101910.03;5004697;28;20034;-66
2021/07/09 01:48:42;;;;;;;4.72;3.60;;;;;;;21.79;58.52;101905.72;5009863;28;20041;-66
2021/07/09 01:51:07;;;;;;;3.78;3.03;;;;;;;21.79;58.45;101903.88;5006365;28;20038;-66
2021/07/09 01:53:33;;;;;;;4.65;3.38;;;;;;;21.80;58.51;101913.53;5006369;28;20085;-66
2021/07/09 01:55:58;;;;;;;4.63;3.15;;;;;;;21.81;58.73;101909.03;5008350;28;20042;-66
2021/07/09 01:58:24;;;;;;;4.32;3.35;;;;;;;21.79;58.51;101911.06;5010584;28;20409;-66
2021/07/09 02:00:50;;;;;;;6.53;4.32;;;;;;;21.79;58.76;101909.22;5015278;28;20065;-66
2021/07/09 02:03:16;;;;;;;4.57;3.20;;;;;;;21.80;58.51;101910.88;4992025;28;20034;-66
2021/07/09 02:05:42;;;;;;;5.50;3.53;;;;;;;21.79;58.67;101905.72;4999753;28;20037;-65
2021/07/09 02:08:08;;;;;;;5.40;3.35;;;;;;;21.79;58.83;101901.19;4991103;28;20043;-66
2021/07/09 02:10:36;;;;;;;4.22;3.40;;;;;;;21.79;58.62;101911.88;4993778;28;20109;-66
2021/07/09 02:13:03;;;;;;;5.47;3.83;;;;;;;21.80;59.10;101913.53;5003433;28;20034;-66
2021/07/09 02:15:44;;;;;;;6.82;3.80;;;;;;;21.78;59.04;101910.22;4989422;28;20117;-65
2021/07/09 02:18:12;;;;;;;5.82;3.47;;;;;;;21.81;58.89;101909.03;5008860;28;20044;-66
2021/07/09 02:20:37;;;;;;;5.47;3.78;;;;;;;21.82;58.82;101910.69;5024190;28;20046;-66
2021/07/09 02:23:15;;;;;;;5.20;3.38;;;;;;;21.80;59.22;101896.69;5011607;28;20430;-65
2021/07/09 02:25:41;;;;;;;5.90;4.20;;;;;;;21.82;58.90;101894.66;5022631;28;20046;-65
2021/07/09 02:28:07;;;;;;;5.68;3.63;;;;;;;21.82;58.66;101890.16;5009486;28;20041;-66
2021/07/09 02:30:33;;;;;;;5.13;3.78;;;;;;;21.83;58.61;101890.97;5007999;28;20382;-66
2021/07/09 02:32:59;;;;;;;5.68;3.92;;;;;;;21.83;58.84;101888.28;5004008;28;20057;-65
2021/07/09 02:35:35;;;;;;;5.10;3.60;;;;;;;21.80;58.83;101886.00;5011183;28;20033;-65
2021/07/09 02:38:01;;;;;;;6.15;4.07;;;;;;;21.83;58.95;101882.94;5015423;28;20045;-66
2021/07/09 02:40:29;;;;;;;6.57;4.05;;;;;;;21.83;58.90;101881.13;4996302;28;20034;-66
2021/07/09 02:42:57;;;;;;;7.15;4.07;;;;;;;21.83;58.86;101881.13;5008377;28;20037;-66
2021/07/09 02:45:23;;;;;;;5.45;4.30;;;;;;;21.83;58.83;101872.28;5008997;28;20549;-66
2021/07/09 02:47:49;;;;;;;6.07;4.50;;;;;;;21.84;58.56;101881.94;5009264;28;20037;-66
2021/07/09 02:50:17;;;;;;;7.15;4.82;;;;;;;21.83;59.13;101874.94;5010074;28;20041;-66
2021/07/09 02:52:43;;;;;;;9.30;5.30;;;;;;;21.84;58.80;101876.59;5009342;28;20049;-65
2021/07/09 02:55:10;;;;;;;7.13;4.65;;;;;;;21.85;58.86;101880.09;5009347;28;20405;-65
2021/07/09 02:57:36;;;;;;;8.48;4.75;;;;;;;21.86;59.17;101876.41;5017024;28;20069;-65
2021/07/09 03:00:08;;;;;;;7.60;5.65;;;;;;;21.83;59.24;101870.44;5009232;28;20080;-66
2021/07/09 03:02:33;;;;;;;7.20;4.90;;;;;;;21.84;58.84;101871.25;5016644;28;20033;-66
2021/07/09 03:04:58;;;;;;;7.68;4.85;;;;;;;21.85;59.15;101869.41;4993461;28;20085;-66
2021/07/09 03:07:24;;;;;;;9.02;5.18;;;;;;;21.85;59.07;101869.41;5002749;28;20543;-66
2021/07/09 03:09:49;;;;;;;6.97;5.00;;;;;;;21.85;59.37;101867.56;5015462;28;20485;-64
2021/07/09 03:12:15;;;;;;;7.63;5.00;;;;;;;21.86;59.03;101863.06;4998824;28;20390;-63
2021/07/09 03:14:41;;;;;;;8.10;4.95;;;;;;;21.86;59.47;101861.22;4989926;28;20042;-63
2021/07/09 03:17:07;;;;;;;6.20;4.50;;;;;;;21.86;59.07;101853.19;5001485;28;20252;-63
2021/07/09 03:19:32;;;;;;;6.80;4.55;;;;;;;21.87;59.04;101854.03;5008896;28;20078;-63
2021/07/09 03:21:58;;;;;;;5.90;4.75;;;;;;;21.87;59.37;101851.34;5008980;28;20139;-64
2021/07/09 03:24:23;;;;;;;7.78;4.72;;;;;;;21.88;59.21;101847.66;4991407;28;20124;-63
2021/07/09 03:26:49;;;;;;;7.82;4.95;;;;;;;21.86;59.22;101847.84;4999910;28;20065;-63
2021/07/09 03:29:14;;;;;;;6.82;4.68;;;;;;;21.87;59.55;101843.34;5001342;28;20046;-64
2021/07/09 03:31:40;;;;;;;7.70;4.60;;;;;;;21.88;59.60;101845.81;5008261;28;20033;-64
2021/07/09 03:34:05;;;;;;;8.23;4.57;;;;;;;21.88;59.46;101837.81;5008268;28;20148;-63
2021/07/09 03:36:31;;;;;;;6.90;4.75;;;;;;;21.87;59.42;101838.81;5015589;28;20064;-63
2021/07/09 03:38:57;;;;;;;8.55;5.45;;;;;;;21.87;58.78;101836.16;5020891;28;20030;-63
2021/07/09 03:41:24;;;;;;;8.02;5.35;;;;;;;21.87;59.00;101833.47;5016003;28;20155;-64
2021/07/09 03:43:50;;;;;;;7.18;5.15;;;;;;;21.87;58.76;101838.00;5018550;28;20120;-63
2021/07/09 03:46:16;;;;;;;8.52;5.53;;;;;;;21.86;58.70;101842.50;5011042;28;20113;-64
2021/07/09 03:48:41;;;;;;;8.20;4.93;;;;;;;21.87;58.49;101838.81;5016875;28;20042;-63
2021/07/09 03:51:07;;;;;;;8.30;4.63;;;;;;;21.86;58.60;101842.50;5020246;28;20041;-63
2021/07/09 03:53:32;;;;;;;5.97;4.85;;;;;;;21.86;58.12;101837.16;5015543;28;20038;-63
2021/07/09 03:55:58;;;;;;;5.20;4.40;;;;;;;21.85;58.13;101830.16;5021336;28;20507;-63
2021/07/09 03:58:24;;;;;;;5.70;4.25;;;;;;;21.85;58.42;101829.34;5016211;28;20045;-64
2021/07/09 04:00:50;;;;;;;5.47;3.65;;;;;;;21.85;58.35;101826.66;5018105;28;20033;-63
2021/07/09 04:03:16;;;;;;;4.90;3.80;;;;;;;21.83;58.25;101822.34;5017579;28;20026;-63
2021/07/09 04:05:41;;;;;;;5.80;3.50;;;;;;;21.82;57.97;101819.88;5008969;28;20046;-63
2021/07/09 04:08:07;;;;;;;6.30;4.20;;;;;;;21.82;58.08;101826.03;5020389;28;20033;-63
2021/07/09 04:10:32;;;;;;;5.28;3.85;;;;;;;21.82;58.11;101822.53;5014918;28;20049;-63
2021/07/09 04:12:58;;;;;;;5.28;3.75;;;;;;;21.83;57.96;101818.84;5000194;28;20045;-63
2021/07/09 04:15:23;;;;;;;5.40;3.80;;;;;;;21.82;58.23;101819.88;4986430;28;20443;-64
2021/07/09 04:17:49;;;;;;;4.75;3.72;;;;;;;21.82;57.95;101820.69;5001640;28;20081;-63
2021/07/09 04:20:15;;;;;;;5.30;3.63;;;;;;;21.82;58.23;101815.34;5008193;28;20026;-63
2021/07/09 04:22:40;;;;;;;5.70;3.67;;;;;;;21.82;58.35;101820.69;5008816;28;20034;-63
2021/07/09 04:25:09;;;;;;;4.38;3.30;;;;;;;21.82;57.91;101823.38;5004811;28;20022;-63
2021/07/09 04:27:36;;;;;;;4.97;3.53;;;;;;;21.83;58.08;101816.19;5006047;28;20061;-63
2021/07/09 04:30:03;;;;;;;5.25;2.92;;;;;;;21.83;58.03;101816.19;5011705;28;20045;-63
2021/07/09 04:32:28;;;;;;;5.57;3.65;;;;;;;21.83;58.25;101818.84;5000131;28;20117;-64
2021/07/09 04:34:54;;;;;;;6.00;3.60;;;;;;;21.83;58.04;101821.53;5002542;28;20041;-64
2021/07/09 04:37:20;;;;;;;5.68;3.35;;;;;;;21.83;58.22;101825.03;5020789;28;20026;-64
2021/07/09 04:39:45;;;;;;;5.78;3.13;;;;;;;21.84;58.04;101817.84;5006358;28;20465;-63
2021/07/09 04:42:11;;;;;;;4.95;2.97;;;;;;;21.83;57.88;101822.34;5012074;28;20587;-63
2021/07/09 04:44:37;;;;;;;5.63;3.40;;;;;;;21.83;58.10;101825.03;5016574;28;20022;-63
2021/07/09 04:47:03;;;;;;;4.15;3.30;;;;;;;21.82;58.33;101827.88;5019584;28;20131;-64
2021/07/09 04:49:28;;;;;;;5.78;4.00;;;;;;;21.81;57.93;101821.72;5003303;28;20504;-63
2021/07/09 04:51:54;;;;;;;4.20;3.75;;;;;;;21.80;58.24;101821.91;5018448;28;20112;-64
2021/07/09 04:54:20;;;;;;;7.45;4.53;;;;;;;21.78;58.08;101830.09;5024472;28;20420;-64
2021/07/09 04:56:46;;;;;;;5.35;4.13;;;;;;;21.78;57.87;101831.94;5018749;28;20037;-65
2021/07/09 04:59:11;;;;;;;4.95;3.45;;;;;;;21.76;57.95;101837.44;5022107;28;20082;-66
2021/07/09 05:01:37;;;;;;;5.68;4.03;;;;;;;21.77;57.87;101827.59;5019726;28;20453;-66
2021/07/09 05:04:04;;;;;;;5.80;4.45;;;;;;;21.77;58.21;101830.25;5020774;28;20049;-66
2021/07/09 05:06:31;;;;;;;6.03;4.93;;;;;;;21.75;57.93;101833.13;5022357;28;20033;-65
2021/07/09 05:08:56;;;;;;;6.57;5.13;;;;;;;21.74;58.03;101835.97;5018811;28;20026;-65
2021/07/09 05:11:22;;;;;;;6.93;5.30;;;;;;;21.73;57.87;101831.66;5024291;28;20025;-66
2021/07/09 05:13:47;;;;;;;6.93;4.75;;;;;;;21.70;58.23;101838.19;4997331;28;20041;-66
2021/07/09 05:16:13;;;;;;;7.80;5.50;;;;;;;21.69;57.88;101830.38;5003765;28;20048;-65
2021/07/09 05:18:38;;;;;;;7.78;5.82;;;;;;;21.69;58.10;101833.03;5007132;28;20034;-65
2021/07/09 05:21:03;;;;;;;7.35;5.55;;;;;;;21.66;57.79;101830.75;4999679;28;20082;-66
2021/07/09 05:23:29;;;;;;;8.27;5.90;;;;;;;21.65;57.80;101821.91;5009109;28;20472;-66
2021/07/09 05:25:54;;;;;;;11.00;5.70;;;;;;;21.65;57.81;101826.44;5010224;28;20579;-65
2021/07/09 05:28:20;;;;;;;7.90;5.57;;;;;;;21.64;57.42;101828.28;4997327;28;20030;-66
2021/07/09 05:30:46;;;;;;;6.38;4.90;;;;;;;21.64;57.84;101833.63;5010301;28;20034;-66
2021/07/09 05:33:14;;;;;;;8.75;5.38;;;;;;;21.64;57.62;101825.59;5004321;28;20672;-66
2021/07/09 05:35:43;;;;;;;9.10;5.55;;;;;;;21.65;57.64;101826.44;5017881;28;20050;-65
2021/07/09 05:38:08;;;;;;;6.22;4.72;;;;;;;21.65;57.52;101829.09;5011264;28;20140;-66
2021/07/09 05:40:34;;;;;;;7.30;5.38;;;;;;;21.64;57.80;101816.78;5022906;28;20112;-65
2021/07/09 05:43:01;;;;;;;7.50;5.20;;;;;;;21.64;57.37;101824.78;5020011;28;20473;-67
2021/07/09 05:45:27;;;;;;;7.75;5.03;;;;;;;21.64;57.58;101828.28;5011530;28;20312;-65
2021/07/09 05:47:53;;;;;;;7.90;5.10;;;;;;;21.64;57.64;101833.63;5015567;28;20037;-66
2021/07/09 05:50:18;;;;;;;7.68;4.97;;;;;;;21.64;57.39;101824.78;5021760;28;20045;-66
2021/07/09 05:52:44;;;;;;;6.32;4.03;;;;;;;21.63;57.24;101823.94;5025926;28;20037;-66
2021/07/09 05:55:09;;;;;;;6.05;4.25;;;;;;;21.64;57.22;101824.78;5022250;28;20669;-66
2021/07/09 05:57:35;;;;;;;8.95;4.20;;;;;;;21.62;57.29;101822.28;5023926;28;20034;-66
2021/07/09 06:00:01;;;;;;;5.82;3.90;;;;;;;21.63;57.21;101825.78;5021890;28;20495;-66
2021/07/09 06:02:27;;;;;;;6.40;3.78;;;;;;;21.63;57.21;101829.28;5011849;28;20038;-66
2021/07/09 06:04:52;;;;;;;8.55;3.72;;;;;;;21.61;56.94;101825.13;5019969;28;20045;-66
2021/07/09 06:07:18;;;;;;;7.18;3.75;;;;;;;21.61;56.78;101825.94;5014402;28;20030;-66
2021/07/09 06:09:44;;;;;;;6.22;4.07;;;;;;;21.61;57.00;101827.78;5025824;28;20048;-66
2021/07/09 06:12:09;;;;;;;7.80;3.90;;;;;;;21.58;56.62;101830.84;5019742;28;20521;-66
2021/07/09 06:14:35;;;;;;;6.65;3.38;;;;;;;21.56;56.65;101825.69;4999981;28;20038;-66
2021/07/09 06:17:00;;;;;;;5.35;3.17;;;;;;;21.54;56.70;101830.38;5010209;28;20418;-66
2021/07/09 06:19:26;;;;;;;5.97;3.13;;;;;;;21.52;56.51;101833.25;4993098;28;20038;-65
2021/07/09 06:21:51;;;;;;;5.38;3.30;;;;;;;21.53;56.11;101828.72;5005124;28;20031;-66
2021/07/09 06:24:17;;;;;;;5.80;3.50;;;;;;;21.52;56.30;101835.91;5001271;28;20021;-65
2021/07/09 06:26:42;;;;;;;5.32;3.53;;;;;;;21.52;55.76;101832.41;5009138;28;20554;-66
2021/07/09 06:29:09;;;;;;;7.43;3.20;;;;;;;21.51;56.05;101836.09;5009908;28;20053;-66
2021/07/09 06:31:34;;;;;;;6.28;3.45;;;;;;;21.50;55.90;101829.94;5008561;28;20037;-66
2021/07/09 06:33:59;;;;;;;5.50;3.20;;;;;;;21.50;55.80;101834.44;5004011;28;20040;-65
2021/07/09 06:36:25;;;;;;;4.65;3.00;;;;;;;21.48;55.65;101829.31;5007252;28;20038;-66
2021/07/09 06:38:50;;;;;;;5.68;3.20;;;;;;;21.48;55.50;101828.47;5021052;28;20033;-66
2021/07/09 06:41:16;;;;;;;4.70;3.08;;;;;;;21.48;55.44;101831.13;5018425;28;20038;-65
2021/07/09 06:43:41;;;;;;;4.82;2.67;;;;;;;21.48;55.55;101829.31;5018599;28;20025;-66
2021/07/09 06:46:07;;;;;;;6.88;2.97;;;;;;;21.48;55.73;101826.63;5016544;28;20112;-66
2021/07/09 06:48:32;;;;;;;4.85;2.90;;;;;;;21.47;55.39;101832.97;5016990;28;20401;-66
2021/07/09 06:50:58;;;;;;;6.20;2.83;;;;;;;21.48;55.56;101831.13;5022164;28;20041;-66
2021/07/09 06:53:23;;;;;;;4.43;2.75;;;;;;;21.47;55.15;101838.31;5016775;28;20034;-66
2021/07/09 06:55:49;;;;;;;6.70;2.80;;;;;;;21.46;55.06;101826.00;5020359;28;20037;-65
2021/07/09 06:58:14;;;;;;;5.97;2.72;;;;;;;21.45;55.40;101824.31;5008022;28;20143;-66
2021/07/09 07:00:40;;;;;;;5.07;2.80;;;;;;;21.46;55.32;101819.78;5017401;28;20041;-66
2021/07/09 07:03:07;;;;;;;5.13;2.45;;;;;;;21.45;55.08;101816.28;5019778;28;20040;-65
2021/07/09 07:05:33;;;;;;;4.38;2.28;;;;;;;21.45;55.08;101820.81;5016363;28;20033;-66
2021/07/09 07:08:14;;;;;;;4.95;2.33;;;;;;;21.40;55.23;101816.03;5022134;28;20025;-65
2021/07/09 07:10:39;;;;;;;4.53;2.30;;;;;;;21.44;54.84;101821.81;5010452;28;20173;-66
2021/07/09 07:13:05;;;;;;;5.57;2.65;;;;;;;21.43;54.93;101823.66;5010847;28;20120;-64
2021/07/09 07:15:30;;;;;;;4.25;2.58;;;;;;;21.42;54.75;101823.84;4989231;28;20466;-63
2021/07/09 07:17:55;;;;;;;6.43;2.67;;;;;;;21.41;55.16;101824.88;5000656;28;20042;-64
2021/07/09 07:20:21;;;;;;;5.32;2.80;;;;;;;21.42;55.13;101831.84;5001644;28;20034;-63
2021/07/09 07:22:46;;;;;;;7.90;2.80;;;;;;;21.42;54.72;101838.03;5018709;28;20046;-64
2021/07/09 07:25:12;;;;;;;5.40;2.35;;;;;;;21.44;55.05;101841.34;5015315;28;20052;-66
2021/07/09 07:27:37;;;;;;;6.47;2.63;;;;;;;21.45;55.44;101839.50;5014199;28;20473;-67
2021/07/09 07:30:04;;;;;;;4.78;2.78;;;;;;;21.47;55.74;101838.31;5019640;28;20111;-64
2021/07/09 07:32:29;;;;;;;8.00;2.47;;;;;;;21.50;56.14;101845.13;5023508;28;20037;-64
2021/07/09 07:34:55;;;;;;;6.53;2.63;;;;;;;21.51;56.13;101842.28;5018180;28;20433;-64
2021/07/09 07:37:21;;;;;;;5.53;2.95;;;;;;;21.52;56.35;101849.25;5013629;28;20111;-65
2021/07/09 07:39:46;;;;;;;8.95;2.70;;;;;;;21.52;56.18;101848.44;5016412;28;20036;-64
2021/07/09 07:42:12;;;;;;;7.50;3.20;;;;;;;21.53;56.59;101850.09;5012925;28;20029;-64
2021/07/09 07:44:37;;;;;;;4.93;2.35;;;;;;;21.51;56.28;101844.94;5026179;28;20060;-64
2021/07/09 07:47:03;;;;;;;4.93;2.47;;;;;;;21.53;56.24;101848.25;5011371;28;20046;-65
2021/07/09 07:49:29;;;;;;;7.38;2.55;;;;;;;21.53;56.41;101850.91;5012110;28;20109;-65
2021/07/09 07:51:54;;;;;;;8.10;2.40;;;;;;;21.54;56.13;101846.41;5012096;28;20130;-64
2021/07/09 07:54:20;;;;;;;5.57;2.50;;;;;;;21.55;56.14;101849.91;5006039;28;20049;-65
2021/07/09 07:56:46;;;;;;;8.88;3.05;;;;;;;21.55;56.10;101845.41;5025134;28;20041;-65
2021/07/09 07:59:12;;;;;;;10.93;3.17;;;;;;;21.57;56.74;101850.53;5024219;28;20065;-64
2021/07/09 08:01:37;;;;;;;10.80;4.20;;;;;;;21.58;56.62;101850.34;5018300;28;20449;-64
2021/07/09 08:04:03;;;;;;;16.45;4.75;;;;;;;21.59;56.59;101852.00;5023099;28;20037;-64
2021/07/09 08:06:29;;;;;;;17.67;5.07;;;;;;;21.60;56.90;101859.00;5027762;28;20034;-64
2021/07/09 08:08:54;;;;;;;16.52;5.43;;;;;;;21.61;56.96;101859.84;5026215;28;20035;-64
2021/07/09 08:11:21;;;;;;;19.55;5.13;;;;;;;21.62;56.88;101857.00;5009555;28;20041;-64
2021/07/09 08:13:47;;;;;;;18.33;5.50;;;;;;;21.64;57.27;101854.16;4998738;28;20042;-65
2021/07/09 08:16:12;;;;;;;19.92;5.30;;;;;;;21.64;57.30;101852.31;5008724;28;20684;-65
2021/07/09 08:18:38;;;;;;;13.38;4.93;;;;;;;21.65;57.54;101855.81;5021023;28;20025;-65
2021/07/09 08:21:03;;;;;;;17.08;4.90;;;;;;;21.65;57.82;101850.47;5010992;28;20037;-65
2021/07/09 08:23:29;;;;;;;12.68;4.25;;;;;;;21.66;57.23;101850.28;5021235;28;20147;-65
2021/07/09 08:25:56;;;;;;;10.80;4.05;;;;;;;21.67;57.20;101845.75;5019851;28;20050;-65
2021/07/09 08:28:22;;;;;;;12.35;3.88;;;;;;;21.67;57.20;101843.09;5014155;28;20025;-65
2021/07/09 08:30:48;;;;;;;10.43;3.95;;;;;;;21.66;56.73;101836.09;5014156;28;20173;-65
2021/07/09 08:33:13;;;;;;;8.48;3.33;;;;;;;21.66;56.54;101841.44;5008259;28;20150;-65
2021/07/09 08:35:39;;;;;;;11.07;3.20;;;;;;;21.65;56.52;101837.94;5021848;28;20037;-65
2021/07/09 08:38:05;;;;;;;7.82;3.20;;;;;;;21.65;56.38;101842.44;5012206;28;20042;-65
2021/07/09 08:40:30;;;;;;;5.93;3.30;;;;;;;21.66;56.02;101836.09;5007971;28;20438;-65
2021/07/09 08:42:56;;;;;;;10.32;3.70;;;;;;;21.65;56.10;101835.28;5014859;28;20034;-65
2021/07/09 08:45:21;;;;;;;8.48;2.85;;;;;;;21.64;56.28;101838.97;5017928;28;20034;-65
2021/07/09 08:47:48;;;;;;;8.45;3.40;;;;;;;21.65;56.33;101835.28;5011747;28;20041;-65
2021/07/09 08:50:14;;;;;;;10.40;3.40;;;;;;;21.66;55.86;101834.25;5031536;28;20057;-65
2021/07/09 08:52:41;;;;;;;5.55;2.70;;;;;;;21.65;55.96;101839.78;5020109;28;20401;-65
2021/07/09 08:55:18;;;;;;;6.15;3.10;;;;;;;21.65;55.56;101837.13;5008924;28;20070;-65
2021/07/09 08:57:44;;;;;;;4.43;2.83;;;;;;;21.64;55.31;101844.28;5007632;28;20083;-65
2021/07/09 09:00:32;;;;;;;7.25;3.10;;;;;;;21.59;55.23;101843.19;5016065;28;20125;-65
2021/07/09 09:02:57;;;;;;;7.20;2.75;;;;;;;21.61;55.43;101839.31;5001564;28;20450;-65
2021/07/09 09:05:27;;;;;;;4.97;2.80;;;;;;;21.60;55.25;101842.16;5016398;28;20038;-65
2021/07/09 09:08:03;;;;;;;5.40;2.72;;;;;;;21.57;54.96;101834.53;5021009;28;20092;-65
2021/07/09 09:10:31;;;;;;;4.55;2.63;;;;;;;21.58;54.81;101837.00;5016803;28;20470;-65
2021/07/09 09:13:06;;;;;;;4.07;2.47;;;;;;;21.58;54.66;101839.69;5018492;28;20477;-65
2021/07/09 09:15:32;;;;;;;;;;;;;;;21.47;55.12;101827.63;4992458;28;20486;-65
2021/07/09 09:17:57;;;;;;;5.07;2.53;;;;;;;21.53;54.96;101826.91;5004977;28;19917;-65
2021/07/09 09:20:22;;;;;;;6.53;2.83;;;;;;;21.53;55.03;101823.41;4998712;28;20367;-65
2021/07/09 09:22:48;;;;;;;5.43;2.60;;;;;;;21.55;54.45;101833.88;5023923;28;20037;-65
2021/07/09 09:25:18;;;;;;;5.80;2.67;;;;;;;21.54;54.72;101822.38;4998727;28;20087;-65
2021/07/09 09:27:44;;;;;;;4.28;2.30;;;;;;;21.55;54.83;101833.88;5022535;28;20096;-65
2021/07/09 09:30:14;;;;;;;5.53;2.30;;;;;;;21.55;54.32;101826.69;5013064;28;20042;-65
2021/07/09 09:32:51;;;;;;;3.65;2.28;;;;;;;21.55;54.19;101823.22;5007485;28;20080;-65
2021/07/09 09:35:28;;;;;;;3.08;2.10;;;;;;;21.55;54.11;101823.22;5011482;28;20021;-65
2021/07/09 09:37:59;;;;;;;4.93;2.50;;;;;;;21.57;54.11;101819.34;5019495;28;20036;-64
2021/07/09 09:40:26;;;;;;;5.03;2.35;;;;;;;21.59;54.04;101821.81;5021428;28;20461;-64
2021/07/09 09:42:52;;;;;;;3.60;2.15;;;;;;;21.58;54.25;101818.31;5020027;28;20046;-65
2021/07/09 09:45:20;;;;;;;6.07;2.55;;;;;;;21.60;54.01;101820.81;5019198;28;20726;-64
2021/07/09 09:47:47;;;;;;;5.45;2.63;;;;;;;21.61;54.24;101817.94;5019039;28;20041;-64
2021/07/09 09:50:18;;;;;;;3.80;2.38;;;;;;;21.60;54.18;101818.97;5012272;28;20038;-64
2021/07/09 09:52:47;;;;;;;4.97;2.25;;;;;;;21.62;54.32;101824.97;5021591;28;20128;-65
2021/07/09 09:55:21;;;;;;;3.05;2.00;;;;;;;21.60;53.95;101816.28;5017640;28;20504;-66
2021/07/09 09:57:48;;;;;;;4.75;2.50;;;;;;;21.62;54.32;101821.44;5024392;28;20037;-65
2021/07/09 10:00:16;;;;;;;3.90;2.33;;;;;;;21.61;53.93;101817.94;5009556;28;20078;-65
2021/07/09 10:02:44;;;;;;;3.35;2.10;;;;;;;21.62;53.84;101818.78;5022058;28;20414;-65
2021/07/09 10:05:10;;;;;;;4.63;2.20;;;;;;;21.62;54.08;101821.44;5018286;28;20859;-66
2021/07/09 10:07:36;;;;;;;3.38;2.30;;;;;;;21.64;54.33;101822.09;5008221;28;20473;-66
2021/07/09 10:10:04;;;;;;;4.20;2.30;;;;;;;21.65;54.50;101823.75;5020038;28;20499;-65
2021/07/09 10:12:30;;;;;;;2.85;2.10;;;;;;;21.65;54.32;101829.94;5019004;28;20038;-65
2021/07/09 10:14:56;;;;;;;3.17;2.22;;;;;;;21.67;54.52;101827.06;4998089;28;20029;-65
2021/07/09 10:17:26;;;;;;;4.90;2.22;;;;;;;21.66;54.62;101831.59;5010026;28;20040;-65
2021/07/09 10:19:53;;;;;;;2.83;2.08;;;;;;;21.66;54.58;101831.59;5009756;28;20034;-65
2021/07/09 10:22:19;;;;;;;3.38;2.08;;;;;;;21.66;54.36;101828.09;5010628;28;20456;-65
2021/07/09 10:24:46;;;;;;;4.45;2.08;;;;;;;21.66;53.86;101836.09;5009928;28;20053;-65
2021/07/09 10:27:13;;;;;;;3.35;1.80;;;;;;;21.64;54.05;101828.28;5010315;28;20503;-65
2021/07/09 10:29:46;;;;;;;3.75;2.05;;;;;;;21.61;53.94;101823.28;5010080;28;20367;-65
2021/07/09 10:32:12;;;;;;;5.55;2.15;;;;;;;21.62;53.71;101821.44;5009950;28;20068;-65
2021/07/09 10:34:41;;;;;;;3.95;1.88;;;;;;;21.60;53.33;101823.47;5009258;28;20465;-65
2021/07/09 10:37:09;;;;;;;2.95;1.98;;;;;;;21.59;53.71;101824.47;5021125;28;20025;-65
2021/07/09 10:39:45;;;;;;;5.32;1.95;;;;;;;21.56;53.74;101825.69;5018502;28;20545;-64
2021/07/09 10:42:12;;;;;;;4.63;2.30;;;;;;;21.58;53.73;101821.00;5020541;28;20030;-65
2021/07/09 10:44:37;;;;;;;4.22;2.20;;;;;;;21.58;53.57;101815.66;5017988;28;20033;-65
2021/07/09 10:47:15;;;;;;;4.85;2.42;;;;;;;21.56;53.97;101820.34;5017968;28;20117;-65
2021/07/09 10:49:50;;;;;;;4.03;2.30;;;;;;;21.56;53.88;101812.34;5018846;28;20041;-65
2021/07/09 10:52:43;;;;;;;2.70;1.77;;;;;;;21.55;53.95;101808.00;5019351;28;20033;-65
2021/07/09 10:55:45;;;;;;;2.87;2.00;;;;;;;21.56;54.45;101808.84;5009753;28;20045;-65
2021/07/09 10:58:22;;;;;;;3.80;2.13;;;;;;;21.62;54.30;101810.75;4999450;28;20264;-65
2021/07/09 11:00:57;;;;;;;4.55;2.30;;;;;;;21.64;54.23;101811.44;5017160;28;20057;-64
2021/07/09 11:03:47;;;;;;;3.00;2.20;;;;;;;21.60;54.10;101810.13;5017550;28;20100;-65
2021/07/09 11:06:14;;;;;;;3.00;2.03;;;;;;;21.65;54.45;101805.06;5021676;28;20109;-66
2021/07/09 11:08:55;;;;;;;4.22;2.28;;;;;;;21.63;53.93;101812.44;5016794;28;20057;-65
2021/07/09 11:11:36;;;;;;;4.70;2.35;;;;;;;21.62;54.28;101800.94;5009680;28;20025;-64
2021/07/09 11:14:31;;;;;;;3.03;1.92;;;;;;;21.63;54.14;101796.41;4997681;28;20031;-65
2021/07/09 11:17:12;;;;;;;2.92;2.20;;;;;;;21.62;54.38;101797.41;4995756;28;20034;-66
2021/07/09 11:19:37;;;;;;;4.18;2.40;;;;;;;21.65;54.11;101805.91;5008819;28;20033;-66
2021/07/09 11:22:10;;;;;;;7.00;2.50;;;;;;;21.64;54.26;101798.06;5008913;28;20749;-66
2021/07/09 11:24:41;;;;;;;4.75;2.22;;;;;;;21.66;54.16;101806.72;5009151;28;20040;-66